Terminal Aerodrome Forecast
Issued by NWS

Home | Current Version | Previous Version | Text Only | Print | Product List | Glossary On
Versions: 1 2 3 4 5 6 7 8 9 10 11 12 13 14 15 16 17 18 19 20 21 22
000
FTUS45 KTFX 281100
TAFGTF
TAF
KGTF 281121Z 2812/2912 24012G22KT P6SM SCT090 BKN120
     FM281700 24022G36KT P6SM SCT050 BKN070
     FM290300 33015G22KT P6SM VCSH SCT015 OVC035
     FM290700 36015KT 2SM -SN BR OVC015=

USA.gov is the U.S. government's official web portal to all federal, state and local government web resources and services.